createdAt,value
2023-06-17T00:02:16.550Z,101534.50
2023-06-17T00:04:45.835Z,101561.88
2023-06-17T00:07:15.569Z,101555.97
2023-06-17T00:09:45.452Z,101555.84
2023-06-17T00:12:14.069Z,101553.22
2023-06-17T00:14:43.236Z,101547.97
2023-06-17T00:17:12.245Z,101541.94
2023-06-17T00:19:41.363Z,101551.78
2023-06-17T00:22:10.925Z,101553.75
2023-06-17T00:24:40.689Z,101547.25
2023-06-17T00:27:09.164Z,101513.00
2023-06-17T00:29:37.967Z,101537.72
2023-06-17T00:32:07.224Z,101536.88
2023-06-17T00:34:35.556Z,101535.19
2023-06-17T00:37:04.293Z,101533.44
2023-06-17T00:39:32.697Z,101538.75
2023-06-17T00:42:03.434Z,101529.19
2023-06-17T00:44:31.830Z,101528.38
2023-06-17T00:47:00.524Z,101530.44
2023-06-17T00:49:37.504Z,101531.56
2023-06-17T00:52:23.934Z,101522.91
2023-06-17T00:54:57.235Z,101523.03
2023-06-17T00:57:28.902Z,101522.13
2023-06-17T00:59:57.501Z,101524.84
2023-06-17T01:02:27.083Z,101527.44
2023-06-17T01:04:56.929Z,101527.38
2023-06-17T01:07:39.003Z,101525.97
2023-06-17T01:10:14.612Z,101534.47
2023-06-17T01:12:45.463Z,101531.44
2023-06-17T01:15:17.253Z,101528.75
2023-06-17T01:17:47.280Z,101535.91
2023-06-17T01:20:17.798Z,101531.44
2023-06-17T01:22:47.677Z,101532.34
2023-06-17T01:25:17.480Z,101532.50
2023-06-17T01:27:47.302Z,101539.53
2023-06-17T01:30:16.300Z,101538.59
2023-06-17T01:32:45.180Z,101537.78
2023-06-17T01:35:17.107Z,101540.50
2023-06-17T01:37:50.590Z,101459.13
2023-06-17T01:40:24.201Z,101523.72
2023-06-17T01:42:55.058Z,101448.09
2023-06-17T01:45:25.760Z,101455.38
2023-06-17T01:47:54.430Z,101499.50
2023-06-17T01:50:23.229Z,101527.53
2023-06-17T01:52:51.813Z,101523.91
2023-06-17T01:55:21.867Z,101523.03
2023-06-17T01:57:50.299Z,101520.41
2023-06-17T02:00:19.767Z,101522.22
2023-06-17T02:02:54.341Z,101514.09
2023-06-17T02:05:25.576Z,101505.38
2023-06-17T02:07:54.789Z,101512.47
2023-06-17T02:10:24.539Z,101514.25
2023-06-17T02:12:52.888Z,101514.50
2023-06-17T02:15:21.711Z,101506.59
2023-06-17T02:17:53.057Z,101512.84
2023-06-17T02:20:22.341Z,101513.59
2023-06-17T02:22:50.836Z,101511.03
2023-06-17T02:25:19.216Z,101506.47
2023-06-17T02:27:49.592Z,101505.66
2023-06-17T02:30:18.285Z,101498.59
2023-06-17T02:32:46.857Z,101498.56
2023-06-17T02:35:15.266Z,101497.59
2023-06-17T02:37:43.929Z,101501.06
2023-06-17T02:40:13.165Z,101496.78
2023-06-17T02:42:41.866Z,101487.00
2023-06-17T02:45:13.859Z,101493.28
2023-06-17T02:47:44.013Z,101489.75
2023-06-17T02:50:12.717Z,101494.34
2023-06-17T02:52:41.323Z,101477.69
2023-06-17T02:55:10.820Z,101495.34
2023-06-17T02:57:39.255Z,101361.53
2023-06-17T03:00:11.699Z,101486.47
2023-06-17T03:02:42.065Z,101484.53
2023-06-17T03:05:10.811Z,101477.50
2023-06-17T03:07:41.425Z,101482.00
2023-06-17T03:10:12.320Z,101477.16
2023-06-17T03:12:47.065Z,101476.31
2023-06-17T03:15:18.581Z,101482.72
2023-06-17T03:17:48.949Z,101478.63
2023-06-17T03:20:17.531Z,101474.44
2023-06-17T03:22:46.232Z,101473.84
2023-06-17T03:25:14.874Z,101470.38
2023-06-17T03:27:43.178Z,101476.41
2023-06-17T03:30:13.232Z,101479.00
2023-06-17T03:32:41.695Z,101476.75
2023-06-17T03:35:12.006Z,101473.50
2023-06-17T03:37:40.379Z,101474.44
2023-06-17T03:40:11.265Z,101470.59
2023-06-17T03:42:41.154Z,101470.66
2023-06-17T03:45:11.678Z,101486.47
2023-06-17T03:47:40.141Z,101484.78
2023-06-17T03:50:11.687Z,101483.94
2023-06-17T03:52:40.407Z,101482.00
2023-06-17T03:55:09.992Z,101487.13
2023-06-17T03:57:38.863Z,101485.16
2023-06-17T04:00:11.578Z,101468.34
2023-06-17T04:02:48.367Z,101472.09
2023-06-17T04:05:34.578Z,101477.44
2023-06-17T04:08:05.107Z,101483.75
2023-06-17T04:10:35.733Z,101478.16
2023-06-17T04:13:04.193Z,101486.66
2023-06-17T04:15:32.637Z,101487.47
2023-06-17T04:18:03.286Z,101499.56
2023-06-17T04:20:35.954Z,101493.41
2023-06-17T04:23:04.680Z,101487.06
2023-06-17T04:25:33.682Z,101486.00
2023-06-17T04:28:03.458Z,101486.72
2023-06-17T04:30:36.187Z,101389.19
2023-06-17T04:33:04.805Z,101489.59
2023-06-17T04:35:35.326Z,101489.34
2023-06-17T04:38:04.609Z,101486.44
2023-06-17T04:40:33.782Z,101491.31
2023-06-17T04:43:03.381Z,101495.41
2023-06-17T04:45:34.669Z,101492.63
2023-06-17T04:48:07.126Z,101490.81
2023-06-17T04:50:37.538Z,101492.13
2023-06-17T04:53:05.958Z,101489.16
2023-06-17T04:55:39.404Z,101488.00
2023-06-17T04:58:10.970Z,101492.16
2023-06-17T05:01:02.322Z,101489.03
2023-06-17T05:03:32.679Z,101493.19
2023-06-17T05:06:02.534Z,101496.50
2023-06-17T05:08:32.461Z,101495.94
2023-06-17T05:11:01.652Z,101491.25
2023-06-17T05:13:31.159Z,101491.19
2023-06-17T05:16:01.933Z,101491.19
2023-06-17T05:18:32.290Z,101489.84
2023-06-17T05:21:04.957Z,101499.50
2023-06-17T05:23:33.394Z,101499.31
2023-06-17T05:26:01.822Z,101496.16
2023-06-17T05:28:30.701Z,101496.94
2023-06-17T05:30:59.786Z,101497.50
2023-06-17T05:33:28.690Z,101493.75
2023-06-17T05:36:01.310Z,101489.13
2023-06-17T05:38:32.487Z,101493.41
2023-06-17T05:41:00.884Z,101492.31
2023-06-17T05:43:31.466Z,101478.19
2023-06-17T05:46:01.081Z,101496.91
2023-06-17T05:48:29.516Z,101498.50
2023-06-17T05:50:57.866Z,101465.84
2023-06-17T05:53:26.402Z,101493.63
2023-06-17T05:55:56.332Z,101497.84
2023-06-17T05:58:25.384Z,101503.41
2023-06-17T06:00:59.939Z,101498.22
2023-06-17T06:03:28.379Z,101507.44
2023-06-17T06:05:56.826Z,101501.56
2023-06-17T06:08:25.261Z,101495.81
2023-06-17T06:10:55.050Z,101497.47
2023-06-17T06:13:24.882Z,101497.56
2023-06-17T06:15:53.357Z,101497.91
2023-06-17T06:18:21.844Z,101498.66
2023-06-17T06:20:50.281Z,101506.13
2023-06-17T06:23:19.782Z,101491.53
2023-06-17T06:25:49.083Z,101491.53
2023-06-17T06:28:19.482Z,101487.00
2023-06-17T06:30:48.303Z,101489.56
2023-06-17T06:33:17.605Z,101490.19
2023-06-17T06:35:45.920Z,101489.31
2023-06-17T06:38:19.047Z,101478.28
2023-06-17T06:40:47.989Z,101491.19
2023-06-17T06:43:18.002Z,101485.56
2023-06-17T06:46:03.115Z,101495.63
2023-06-17T06:48:31.554Z,101483.91
2023-06-17T06:50:59.988Z,101486.19
2023-06-17T06:53:28.465Z,101492.50
2023-06-17T06:55:57.826Z,101401.47
2023-06-17T06:58:28.831Z,101478.69
2023-06-17T07:00:57.485Z,101478.75
2023-06-17T07:03:26.794Z,101489.56
2023-06-17T07:05:55.267Z,101485.13
2023-06-17T07:08:23.827Z,101493.97
2023-06-17T07:10:52.192Z,101495.97
2023-06-17T07:13:20.739Z,101501.00
2023-06-17T07:15:52.339Z,101501.94
2023-06-17T07:18:21.747Z,101499.06
2023-06-17T07:20:50.142Z,101504.00
2023-06-17T07:23:20.880Z,101494.56
2023-06-17T07:25:50.077Z,101500.84
2023-06-17T07:28:19.024Z,101504.47
2023-06-17T07:30:47.453Z,101503.56
2023-06-17T07:33:17.929Z,101504.41
2023-06-17T07:35:46.209Z,101501.31
2023-06-17T07:38:15.340Z,101508.38
2023-06-17T07:40:46.488Z,101496.34
2023-06-17T07:43:15.228Z,101412.97
2023-06-17T07:45:43.619Z,101518.88
2023-06-17T07:48:12.028Z,101500.94
2023-06-17T07:50:42.220Z,101504.91
2023-06-17T07:53:10.639Z,101494.53
2023-06-17T07:55:40.403Z,101499.81
2023-06-17T07:58:08.755Z,101508.75
2023-06-17T08:00:37.308Z,101500.69
2023-06-17T08:03:06.184Z,101498.06
2023-06-17T08:05:34.792Z,101507.38
2023-06-17T08:08:04.662Z,101497.13
2023-06-17T08:10:33.119Z,101500.13
2023-06-17T08:13:01.495Z,101498.28
2023-06-17T08:15:30.009Z,101500.81
2023-06-17T08:17:58.440Z,101509.09
2023-06-17T08:20:26.823Z,101503.75
2023-06-17T08:22:55.249Z,101507.22
2023-06-17T08:25:24.937Z,101506.81
2023-06-17T08:27:53.353Z,101485.25
2023-06-17T08:30:22.787Z,101506.56
2023-06-17T08:32:51.549Z,101509.09
2023-06-17T08:35:19.837Z,101499.78
2023-06-17T08:37:48.418Z,101505.91
2023-06-17T08:40:17.386Z,101500.69
2023-06-17T08:42:48.755Z,101503.56
2023-06-17T08:45:17.310Z,101497.97
2023-06-17T08:47:45.722Z,101501.56
2023-06-17T08:50:15.343Z,101494.66
2023-06-17T08:52:45.526Z,101497.47
2023-06-17T08:55:14.704Z,101486.53
2023-06-17T08:57:46.183Z,101495.88
2023-06-17T09:00:15.901Z,101491.56
2023-06-17T09:02:46.891Z,101478.31
2023-06-17T09:05:15.864Z,101493.28
2023-06-17T09:07:44.857Z,101496.13
2023-06-17T09:10:17.849Z,101489.63
2023-06-17T09:12:47.724Z,101489.88
2023-06-17T09:15:20.069Z,101486.66
2023-06-17T09:17:49.539Z,101485.97
2023-06-17T09:20:19.462Z,101492.97
2023-06-17T09:22:49.657Z,101485.94
2023-06-17T09:25:19.694Z,101487.22
2023-06-17T09:28:05.895Z,101490.25
2023-06-17T09:30:43.700Z,101495.34
2023-06-17T09:33:20.118Z,101485.97
2023-06-17T09:35:49.083Z,101487.59
2023-06-17T09:38:19.490Z,101479.81
2023-06-17T09:40:50.624Z,101481.28
2023-06-17T09:45:58.094Z,101482.09
2023-06-17T09:48:31.587Z,101467.13
2023-06-17T09:51:01.609Z,101479.66
2023-06-17T09:53:31.815Z,101481.09
2023-06-17T09:56:01.919Z,101478.06
2023-06-17T09:58:33.161Z,101481.69
2023-06-17T10:01:07.505Z,101467.13
2023-06-17T10:03:38.513Z,101477.72
2023-06-17T10:06:11.996Z,101483.25
2023-06-17T10:08:44.936Z,101477.25
2023-06-17T10:11:15.333Z,101471.50
2023-06-17T10:13:52.327Z,101478.13
2023-06-17T10:16:23.554Z,101463.56
2023-06-17T10:18:54.077Z,101472.72
2023-06-17T10:21:23.320Z,101467.78
2023-06-17T10:23:53.386Z,101467.81
2023-06-17T10:26:23.019Z,101459.41
2023-06-17T10:29:07.052Z,101467.03
2023-06-17T10:31:40.487Z,101463.25
2023-06-17T10:34:16.491Z,101473.63
2023-06-17T10:36:50.085Z,101462.69
2023-06-17T10:39:18.416Z,101462.69
2023-06-17T10:42:01.933Z,101459.56
2023-06-17T10:44:45.181Z,101457.13
2023-06-17T10:47:24.420Z,101455.50
2023-06-17T10:49:55.968Z,101458.09
2023-06-17T10:52:24.380Z,101447.97
2023-06-17T10:54:55.365Z,101406.16
2023-06-17T10:57:38.256Z,101453.28
2023-06-17T11:00:11.386Z,101444.19
2023-06-17T11:02:40.900Z,101440.44
2023-06-17T11:05:11.136Z,101451.56
2023-06-17T11:07:39.554Z,101444.47
2023-06-17T11:10:09.495Z,101433.88
2023-06-17T11:12:40.291Z,101380.13
2023-06-17T11:15:11.167Z,101433.13
2023-06-17T11:17:39.928Z,101430.44
2023-06-17T11:20:09.958Z,101436.06
2023-06-17T11:22:42.120Z,101424.25
2023-06-17T11:25:12.827Z,101423.50
2023-06-17T11:27:42.635Z,101416.97
2023-06-17T11:30:15.373Z,101427.06
2023-06-17T11:32:44.111Z,101404.25
2023-06-17T11:35:12.826Z,101419.81
2023-06-17T11:37:41.480Z,101418.25
2023-06-17T11:40:13.968Z,101410.81
2023-06-17T11:42:42.836Z,101409.81
2023-06-17T11:45:13.414Z,101406.59
2023-06-17T11:47:41.859Z,101413.50
2023-06-17T11:50:11.772Z,101395.44
2023-06-17T11:52:40.140Z,101403.06
2023-06-17T11:55:16.827Z,101401.34
2023-06-17T11:57:45.813Z,101398.84
2023-06-17T12:00:17.081Z,101399.00
2023-06-17T12:02:45.659Z,101390.97
2023-06-17T12:05:14.226Z,101392.63
2023-06-17T12:07:42.634Z,101390.88
2023-06-17T12:10:13.861Z,101386.63
2023-06-17T12:12:42.637Z,101388.75
2023-06-17T12:15:21.244Z,101388.06
2023-06-17T12:18:11.566Z,101385.69
2023-06-17T12:20:50.133Z,101380.19
2023-06-17T12:23:18.567Z,101380.06
2023-06-17T12:25:47.953Z,101376.03
2023-06-17T12:28:17.949Z,101379.69
2023-06-17T12:30:46.337Z,101383.97
2023-06-17T12:33:16.011Z,101346.81
2023-06-17T12:35:44.813Z,101326.66
2023-06-17T12:38:13.112Z,101381.44
2023-06-17T12:40:41.793Z,101370.34
2023-06-17T12:43:10.601Z,101367.75
2023-06-17T12:45:42.003Z,101370.88
2023-06-17T12:48:12.373Z,101360.16
2023-06-17T12:50:42.133Z,101365.44
2023-06-17T12:53:10.477Z,101366.88
2023-06-17T12:55:38.893Z,101352.81
2023-06-17T12:58:08.094Z,101386.72
2023-06-17T13:00:36.375Z,101363.94
2023-06-17T13:03:04.956Z,101371.72
2023-06-17T13:05:33.335Z,101356.28
2023-06-17T13:08:03.407Z,101363.63
2023-06-17T13:10:31.752Z,101340.34
2023-06-17T13:13:00.065Z,101356.56
2023-06-17T13:15:30.538Z,101354.28
2023-06-17T13:17:58.851Z,101353.69
2023-06-17T13:20:27.264Z,101356.53
2023-06-17T13:22:56.639Z,101356.06
2023-06-17T13:25:27.547Z,101345.28
2023-06-17T13:27:56.204Z,101345.72
2023-06-17T13:30:25.362Z,101326.63
2023-06-17T13:32:53.836Z,101342.22
2023-06-17T13:35:22.484Z,101324.13
2023-06-17T13:37:51.452Z,101338.97
2023-06-17T13:40:20.122Z,101345.31
2023-06-17T13:42:50.052Z,101341.66
2023-06-17T13:45:19.626Z,101348.44
2023-06-17T13:47:49.499Z,101341.78
2023-06-17T13:50:17.931Z,101340.53
2023-06-17T13:52:46.337Z,101345.03
2023-06-17T13:55:14.711Z,101339.69
2023-06-17T13:57:43.115Z,101334.63
2023-06-17T14:00:14.065Z,101340.31
2023-06-17T14:02:43.119Z,101334.34
2023-06-17T14:05:11.533Z,101336.94
2023-06-17T14:07:39.852Z,101332.09
2023-06-17T14:10:09.469Z,101337.81
2023-06-17T14:12:38.161Z,101337.91
2023-06-17T14:15:09.814Z,101334.34
2023-06-17T14:17:39.641Z,101332.34
2023-06-17T14:20:09.329Z,101330.47
2023-06-17T14:22:38.267Z,101327.03
2023-06-17T14:25:08.216Z,101330.72
2023-06-17T14:27:40.513Z,101324.03
2023-06-17T14:30:12.139Z,101327.91
2023-06-17T14:32:44.098Z,101314.84
2023-06-17T14:35:15.734Z,101330.13
2023-06-17T14:37:46.153Z,101307.75
2023-06-17T14:40:18.258Z,101337.13
2023-06-17T14:42:47.235Z,101328.28
2023-06-17T14:45:17.550Z,101325.03
2023-06-17T14:47:47.373Z,101320.06
2023-06-17T14:50:15.957Z,101296.69
2023-06-17T14:52:48.915Z,101322.16
2023-06-17T14:55:17.448Z,101322.75
2023-06-17T14:57:46.153Z,101319.97
2023-06-17T15:00:15.574Z,101324.69
2023-06-17T15:02:55.552Z,101314.22
2023-06-17T15:05:27.045Z,101247.91
2023-06-17T15:07:55.625Z,101306.38
2023-06-17T15:10:24.533Z,101303.44
2023-06-17T15:12:53.100Z,101307.41
2023-06-17T15:15:21.941Z,101301.97
2023-06-17T15:17:52.270Z,101285.41
2023-06-17T15:20:21.203Z,101297.78
2023-06-17T15:22:49.926Z,101292.03
2023-06-17T15:25:18.678Z,101288.31
2023-06-17T15:27:47.508Z,101290.31
2023-06-17T15:30:15.995Z,101265.16
2023-06-17T15:32:44.335Z,101279.44
2023-06-17T15:35:14.137Z,101283.25
2023-06-17T15:37:42.426Z,101281.84
2023-06-17T15:40:12.067Z,101211.31
2023-06-17T15:42:41.685Z,101266.81
2023-06-17T15:45:11.459Z,101279.31
2023-06-17T15:47:40.007Z,101271.56
2023-06-17T15:50:09.436Z,101251.81
2023-06-17T15:52:39.376Z,101277.47
2023-06-17T15:55:08.557Z,101279.44
2023-06-17T15:57:36.929Z,101273.75
2023-06-17T16:00:06.374Z,101274.41
2023-06-17T16:02:40.728Z,101276.03
2023-06-17T16:05:09.883Z,101276.63
2023-06-17T16:07:39.765Z,101275.81
2023-06-17T16:10:10.630Z,101246.50
2023-06-17T16:12:39.608Z,101274.38
2023-06-17T16:15:09.419Z,101275.31
2023-06-17T16:17:40.224Z,101274.72
2023-06-17T16:20:10.716Z,101269.03
2023-06-17T16:22:40.693Z,101255.28
2023-06-17T16:25:09.894Z,101264.47
2023-06-17T16:27:38.217Z,101265.47
2023-06-17T16:30:08.280Z,101266.81
2023-06-17T16:32:36.670Z,101160.13
2023-06-17T16:35:05.592Z,101258.00
2023-06-17T16:37:33.978Z,101257.53
2023-06-17T16:40:03.930Z,101249.09
2023-06-17T16:42:34.170Z,101243.75
2023-06-17T16:45:02.555Z,101250.09
2023-06-17T16:47:31.099Z,101245.50
2023-06-17T16:49:59.840Z,101244.75
2023-06-17T16:52:28.239Z,101243.28
2023-06-17T16:54:56.694Z,101245.50
2023-06-17T16:57:26.567Z,101239.31
2023-06-17T16:59:55.005Z,101236.66
2023-06-17T17:02:23.567Z,101235.56
2023-06-17T17:04:51.962Z,101223.16
2023-06-17T17:07:20.317Z,101222.19
2023-06-17T17:09:48.686Z,101220.53
2023-06-17T17:12:17.160Z,101229.69
2023-06-17T17:14:47.029Z,101218.38
2023-06-17T17:17:15.553Z,101221.75
2023-06-17T17:19:44.503Z,101211.31
2023-06-17T17:22:13.068Z,101215.25
2023-06-17T17:24:43.957Z,101219.47
2023-06-17T17:27:12.658Z,101221.66
2023-06-17T17:29:41.485Z,101217.91
2023-06-17T17:32:12.031Z,101218.56
2023-06-17T17:34:40.879Z,101205.59
2023-06-17T17:37:09.275Z,101210.44
2023-06-17T17:39:37.648Z,101211.81
2023-06-17T17:42:07.438Z,101211.94
2023-06-17T17:44:35.826Z,101218.50
2023-06-17T17:47:04.586Z,101215.53
2023-06-17T17:49:34.255Z,101218.50
2023-06-17T17:52:03.334Z,101218.16
2023-06-17T17:54:31.705Z,101213.78
2023-06-17T17:57:00.085Z,101215.25
2023-06-17T17:59:28.743Z,101214.25
2023-06-17T18:01:57.252Z,101210.03
2023-06-17T18:04:25.586Z,101218.88
2023-06-17T18:06:55.334Z,101202.88
2023-06-17T18:09:23.828Z,101218.56
2023-06-17T18:11:52.364Z,101216.34
2023-06-17T18:14:20.668Z,101214.84
2023-06-17T18:16:49.003Z,101209.66
2023-06-17T18:19:17.938Z,101213.59
2023-06-17T18:21:46.462Z,101205.72
2023-06-17T18:24:16.509Z,101193.97
2023-06-17T18:26:45.233Z,101207.06
2023-06-17T18:29:13.655Z,101206.16
2023-06-17T18:31:42.575Z,101190.94
2023-06-17T18:34:10.972Z,101211.41
2023-06-17T18:36:39.361Z,101209.91
2023-06-17T18:39:07.715Z,101207.06
2023-06-17T18:41:37.678Z,101210.22
2023-06-17T18:44:06.344Z,101210.09
2023-06-17T18:46:34.784Z,101208.38
2023-06-17T18:49:03.547Z,101206.41
2023-06-17T18:51:32.268Z,101207.28
2023-06-17T18:54:00.690Z,101198.88
2023-06-17T18:56:29.418Z,101197.03
2023-06-17T18:59:00.643Z,101199.63
2023-06-17T19:01:30.639Z,101203.63
2023-06-17T19:04:00.646Z,101186.66
2023-06-17T19:06:29.072Z,101189.19
2023-06-17T19:08:57.453Z,101197.22
2023-06-17T19:11:25.812Z,101200.28
2023-06-17T19:13:54.185Z,101201.06
2023-06-17T19:16:24.132Z,101205.19
2023-06-17T19:18:52.506Z,101217.78
2023-06-17T19:21:21.312Z,101210.56
2023-06-17T19:23:49.661Z,101211.09
2023-06-17T19:26:18.516Z,101216.63
2023-06-17T19:28:46.962Z,101209.84
2023-06-17T19:31:16.181Z,101218.72
2023-06-17T19:33:46.061Z,101219.19
2023-06-17T19:36:14.576Z,101224.16
2023-06-17T19:38:42.948Z,101197.06
2023-06-17T19:41:11.450Z,101215.16
2023-06-17T19:43:39.932Z,101211.84
2023-06-17T19:46:09.230Z,101214.31
2023-06-17T19:48:37.682Z,101217.38
2023-06-17T19:51:07.446Z,101217.41
2023-06-17T19:53:35.840Z,101215.38
2023-06-17T19:56:04.396Z,101206.28
2023-06-17T19:58:32.769Z,101215.66
2023-06-17T20:01:02.445Z,101217.41
2023-06-17T20:03:30.980Z,101212.34
2023-06-17T20:05:59.545Z,101219.25
2023-06-17T20:08:29.445Z,101193.88
2023-06-17T20:10:58.008Z,101219.66
2023-06-17T20:13:28.445Z,101225.31
2023-06-17T20:15:57.458Z,101231.13
2023-06-17T20:18:25.902Z,101229.66
2023-06-17T20:20:54.268Z,101230.06
2023-06-17T20:23:23.198Z,101224.13
2023-06-17T20:25:53.149Z,101229.53
2023-06-17T20:28:21.469Z,101233.44
2023-06-17T20:30:49.917Z,101225.06
2023-06-17T20:33:18.319Z,101229.34
2023-06-17T20:35:48.803Z,101221.19
2023-06-17T20:38:17.061Z,101225.66
2023-06-17T20:40:45.693Z,101225.28
2023-06-17T20:43:16.689Z,101232.38
2023-06-17T20:45:45.171Z,101207.66
2023-06-17T20:48:15.050Z,101216.88
2023-06-17T20:50:45.020Z,101228.22
2023-06-17T20:53:13.379Z,101221.03
2023-06-17T20:55:42.533Z,101222.13
2023-06-17T20:58:11.023Z,101218.03
2023-06-17T21:00:40.741Z,101224.78
2023-06-17T21:03:09.201Z,101224.78
2023-06-17T21:05:37.652Z,101210.13
2023-06-17T21:08:07.437Z,101222.41
2023-06-17T21:10:36.412Z,101221.13
2023-06-17T21:13:04.841Z,101243.72
2023-06-17T21:15:33.298Z,101217.69
2023-06-17T21:18:03.198Z,101214.66
2023-06-17T21:20:31.611Z,101204.28
2023-06-17T21:23:00.784Z,101215.91
2023-06-17T21:25:29.214Z,101216.13
2023-06-17T21:27:57.580Z,101217.97
2023-06-17T21:30:25.979Z,101210.25
2023-06-17T21:32:54.442Z,101210.06
2023-06-17T21:35:24.178Z,101213.34
2023-06-17T21:37:52.516Z,101214.97
2023-06-17T21:40:21.537Z,101215.16
2023-06-17T21:42:50.085Z,101204.34
2023-06-17T21:45:18.927Z,101207.25
2023-06-17T21:47:47.316Z,101207.16
2023-06-17T21:50:15.681Z,101211.44
2023-06-17T21:52:45.624Z,101172.78
2023-06-17T21:55:13.996Z,101208.31
2023-06-17T21:57:43.801Z,101206.97
2023-06-17T22:00:16.369Z,101207.06
2023-06-17T22:02:44.813Z,101205.50
2023-06-17T22:05:13.394Z,101205.78
2023-06-17T22:07:41.775Z,101197.94
2023-06-17T22:10:12.122Z,101195.63
2023-06-17T22:12:40.453Z,101201.72
2023-06-17T22:15:10.250Z,101204.75
2023-06-17T22:17:38.711Z,101191.28
2023-06-17T22:20:08.667Z,101192.81
2023-06-17T22:22:36.948Z,101189.84
2023-06-17T22:25:07.528Z,101186.34
2023-06-17T22:27:37.597Z,101164.63
2023-06-17T22:30:07.532Z,101192.75
2023-06-17T22:32:35.970Z,101197.56
2023-06-17T22:35:04.764Z,101191.88
2023-06-17T22:37:33.167Z,101196.00
2023-06-17T22:40:01.571Z,101193.41
2023-06-17T22:42:29.954Z,101197.03
2023-06-17T22:44:59.797Z,101188.56
2023-06-17T22:47:28.388Z,101195.56
2023-06-17T22:49:56.829Z,101194.78
2023-06-17T22:52:25.522Z,101188.59
2023-06-17T22:54:53.853Z,101186.41
2023-06-17T22:57:22.156Z,101195.16
2023-06-17T22:59:50.998Z,101190.41
2023-06-17T23:02:20.870Z,101177.22
2023-06-17T23:04:50.085Z,101082.91
2023-06-17T23:07:18.469Z,101175.91
2023-06-17T23:09:46.793Z,101184.31
2023-06-17T23:12:15.232Z,101184.28
2023-06-17T23:14:43.573Z,101183.88
2023-06-17T23:17:11.890Z,101182.38
2023-06-17T23:19:41.571Z,101183.97
2023-06-17T23:22:11.184Z,101194.94
2023-06-17T23:24:40.083Z,101172.56
2023-06-17T23:27:09.006Z,101180.47
2023-06-17T23:29:39.860Z,101181.91
2023-06-17T23:32:09.890Z,101175.28
2023-06-17T23:34:38.430Z,101175.41
2023-06-17T23:37:11.623Z,101167.81
2023-06-17T23:39:39.950Z,101168.59
2023-06-17T23:42:09.725Z,101130.84
2023-06-17T23:44:38.090Z,101164.94
2023-06-17T23:47:08.443Z,101177.38
2023-06-17T23:49:39.329Z,101171.28
2023-06-17T23:52:11.086Z,101171.69
2023-06-17T23:54:40.033Z,101172.13
2023-06-17T23:57:08.845Z,101170.28
2023-06-17T23:59:37.374Z,101163.78
